Time;durP1;ratioP1;P1;durP2;ratioP2;P2;SDS_P1;SDS_P2;PMS_P1;PMS_P2;Temp;Humidity;BMP_temperature;BMP_pressure;BME280_temperature;BME280_humidity;BME280_pressure;Samples;Min_cycle;Max_cycle;Signal;HPM_P1;HPM_P2
2021/12/20 00:00:41;;;;;;;;;24.25;22.25;;;;;;;;5033314;28;45363;-67
2021/12/20 00:03:06;;;;;;;;;28.50;22.25;;;;;;;;5033539;28;45430;-68
2021/12/20 00:05:31;;;;;;;;;28.00;25.25;;;;;;;;5033435;28;46317;-67
2021/12/20 00:07:57;;;;;;;;;24.00;20.00;;;;;;;;5035277;28;45488;-67
2021/12/20 00:10:22;;;;;;;;;27.75;24.75;;;;;;;;5031344;28;45300;-68
2021/12/20 00:12:48;;;;;;;;;28.50;25.50;;;;;;;;5031654;28;45278;-68
2021/12/20 00:15:14;;;;;;;;;29.75;26.75;;;;;;;;5033252;28;46008;-68
2021/12/20 00:17:39;;;;;;;;;29.75;27.00;;;;;;;;5033515;28;45559;-68
2021/12/20 00:20:05;;;;;;;;;28.50;23.75;;;;;;;;5035290;28;45383;-67
2021/12/20 00:22:30;;;;;;;;;31.25;27.25;;;;;;;;5033018;28;45347;-67
2021/12/20 00:24:56;;;;;;;;;31.00;26.75;;;;;;;;5032606;28;45619;-67
2021/12/20 00:27:21;;;;;;;;;34.50;29.25;;;;;;;;5033011;28;45739;-67
2021/12/20 00:29:47;;;;;;;;;35.25;27.50;;;;;;;;5032606;28;45480;-68
2021/12/20 00:32:12;;;;;;;;;36.50;31.00;;;;;;;;5034523;28;45340;-67
2021/12/20 00:34:37;;;;;;;;;35.00;30.25;;;;;;;;5033432;28;46077;-67
2021/12/20 00:37:06;;;;;;;;;31.00;23.25;;;;;;;;5032905;28;45400;-67
2021/12/20 00:42:15;;;;;;;;;27.25;26.00;;;;;;;;5033256;28;45445;-68
2021/12/20 00:44:40;;;;;;;;;31.00;23.75;;;;;;;;5033008;28;45309;-67
2021/12/20 00:47:05;;;;;;;;;29.00;21.00;;;;;;;;5034715;28;45381;-67
2021/12/20 00:49:31;;;;;;;;;26.00;22.75;;;;;;;;5031246;28;45314;-67
2021/12/20 00:51:56;;;;;;;;;33.25;24.25;;;;;;;;5031085;28;45303;-67
2021/12/20 00:54:21;;;;;;;;;28.00;25.00;;;;;;;;5032337;28;45499;-68
2021/12/20 00:56:48;;;;;;;;;28.25;25.75;;;;;;;;5032698;28;45435;-67
2021/12/20 00:59:14;;;;;;;;;28.00;27.00;;;;;;;;5034219;28;45489;-67
2021/12/20 01:01:39;;;;;;;;;30.50;24.00;;;;;;;;5033454;28;45281;-67
2021/12/20 01:04:04;;;;;;;;;28.50;23.75;;;;;;;;5032177;28;46115;-67
2021/12/20 01:06:29;;;;;;;;;24.00;22.00;;;;;;;;5032036;28;45444;-68
2021/12/20 01:08:55;;;;;;;;;23.00;20.50;;;;;;;;5032637;28;45520;-67
2021/12/20 01:11:24;;;;;;;;;28.75;24.75;;;;;;;;5033538;28;45328;-68
2021/12/20 01:13:50;;;;;;;;;30.25;26.25;;;;;;;;5032593;28;46372;-68
2021/12/20 01:16:16;;;;;;;;;26.25;23.75;;;;;;;;5032538;28;45490;-67
2021/12/20 01:18:41;;;;;;;;;26.00;23.50;;;;;;;;5014379;28;45423;-68
2021/12/20 01:21:08;;;;;;;;;30.00;26.75;;;;;;;;5032241;28;45458;-68
2021/12/20 01:23:33;;;;;;;;;26.00;24.00;;;;;;;;5031855;28;47151;-68
2021/12/20 01:25:58;;;;;;;;;20.75;19.00;;;;;;;;5034631;28;45447;-68
2021/12/20 01:28:23;;;;;;;;;24.00;20.75;;;;;;;;5030606;28;45578;-68
2021/12/20 01:30:49;;;;;;;;;33.50;29.00;;;;;;;;5030658;28;45876;-68
2021/12/20 01:33:14;;;;;;;;;27.75;23.25;;;;;;;;5032005;28;46257;-68
2021/12/20 01:35:40;;;;;;;;;26.25;24.75;;;;;;;;5032328;28;45510;-68
2021/12/20 01:38:06;;;;;;;;;29.25;25.75;;;;;;;;5034258;28;45496;-68
2021/12/20 01:40:31;;;;;;;;;26.75;21.25;;;;;;;;5033063;28;45673;-68
2021/12/20 01:42:57;;;;;;;;;27.00;24.00;;;;;;;;5035487;28;45539;-68
2021/12/20 01:45:24;;;;;;;;;24.50;24.25;;;;;;;;5034777;28;45474;-68
2021/12/20 01:47:54;;;;;;;;;26.50;23.75;;;;;;;;5035919;28;45539;-68
2021/12/20 01:53:04;;;;;;;;;27.50;21.75;;;;;;;;4951854;28;45304;-68
2021/12/20 01:55:30;;;;;;;;;29.75;26.50;;;;;;;;4955527;28;45423;-68
2021/12/20 01:57:55;;;;;;;;;17.75;16.00;;;;;;;;4949579;28;45462;-68
2021/12/20 02:00:27;;;;;;;;;31.75;27.25;;;;;;;;4944869;28;45542;-67
2021/12/20 02:03:00;;;;;;;;;28.50;26.25;;;;;;;;4942227;28;49287;-68
2021/12/20 02:05:52;;;;;;;;;34.25;28.25;;;;;;;;4939907;28;45523;-68
2021/12/20 02:08:24;;;;;;;;;39.00;33.00;;;;;;;;4951734;28;45438;-68
2021/12/20 02:10:50;;;;;;;;;32.50;29.00;;;;;;;;4942932;28;45525;-68
2021/12/20 02:13:16;;;;;;;;;27.50;24.75;;;;;;;;4944283;28;46347;-68
2021/12/20 02:15:42;;;;;;;;;33.00;31.00;;;;;;;;4944383;28;45589;-68
2021/12/20 02:18:07;;;;;;;;;34.25;32.50;;;;;;;;4944211;28;45484;-68
2021/12/20 02:20:33;;;;;;;;;39.00;32.75;;;;;;;;4939791;28;45463;-68
2021/12/20 02:22:59;;;;;;;;;37.00;32.50;;;;;;;;4940898;28;46275;-68
2021/12/20 02:25:25;;;;;;;;;40.75;35.00;;;;;;;;4944416;28;45414;-68
2021/12/20 02:27:50;;;;;;;;;35.00;32.25;;;;;;;;4944578;28;45342;-68
2021/12/20 02:38:26;;;;;;;;;43.00;36.75;;;;;;;;5035014;28;45589;-67
2021/12/20 02:40:59;;;;;;;;;40.00;35.00;;;;;;;;5036624;28;45530;-68
2021/12/20 02:43:27;;;;;;;;;47.25;35.50;;;;;;;;5034835;28;47189;-68
2021/12/20 02:45:56;;;;;;;;;44.75;36.25;;;;;;;;5033143;28;45464;-68
2021/12/20 02:48:21;;;;;;;;;39.75;33.00;;;;;;;;5033435;28;49365;-68
2021/12/20 02:50:47;;;;;;;;;45.00;36.50;;;;;;;;5034642;28;45564;-68
2021/12/20 02:53:12;;;;;;;;;40.00;34.50;;;;;;;;5035979;28;46159;-68
2021/12/20 02:55:37;;;;;;;;;41.00;35.25;;;;;;;;5035354;28;45368;-68
2021/12/20 02:58:02;;;;;;;;;43.75;35.75;;;;;;;;5034530;28;45503;-68
2021/12/20 03:00:27;;;;;;;;;49.25;38.25;;;;;;;;5034732;28;45531;-68
2021/12/20 03:02:53;;;;;;;;;42.50;35.50;;;;;;;;5016870;28;47460;-68
2021/12/20 03:05:18;;;;;;;;;43.50;35.75;;;;;;;;5034847;28;45325;-68
2021/12/20 03:07:50;;;;;;;;;38.00;33.50;;;;;;;;5017914;28;45417;-68
2021/12/20 03:10:15;;;;;;;;;52.00;39.50;;;;;;;;5034377;28;45474;-67
2021/12/20 03:12:41;;;;;;;;;42.25;35.50;;;;;;;;5034136;28;46346;-68
2021/12/20 03:15:13;;;;;;;;;47.00;39.75;;;;;;;;5034086;28;45304;-68
2021/12/20 03:17:39;;;;;;;;;50.00;36.25;;;;;;;;5018640;28;45317;-68
2021/12/20 03:20:04;;;;;;;;;47.25;37.25;;;;;;;;5035871;28;45251;-68
2021/12/20 03:22:29;;;;;;;;;46.75;38.00;;;;;;;;5033865;28;46129;-68
2021/12/20 03:24:55;;;;;;;;;49.00;38.00;;;;;;;;5014740;28;45336;-68
2021/12/20 03:27:20;;;;;;;;;44.00;36.50;;;;;;;;5032626;28;45290;-68
2021/12/20 03:29:45;;;;;;;;;50.00;39.25;;;;;;;;5034136;28;45258;-68
2021/12/20 03:32:11;;;;;;;;;45.50;36.50;;;;;;;;5035204;28;46942;-68
2021/12/20 03:34:36;;;;;;;;;36.25;32.75;;;;;;;;5034020;28;45482;-68
2021/12/20 03:37:01;;;;;;;;;41.75;36.25;;;;;;;;5033813;28;45479;-68
2021/12/20 03:39:27;;;;;;;;;38.75;34.25;;;;;;;;5033850;28;45879;-68
2021/12/20 03:41:52;;;;;;;;;41.50;34.50;;;;;;;;5033765;28;46052;-68
2021/12/20 03:44:18;;;;;;;;;39.00;33.75;;;;;;;;5034325;28;45438;-68
2021/12/20 03:46:43;;;;;;;;;46.00;37.75;;;;;;;;5034773;28;45379;-68
2021/12/20 03:49:08;;;;;;;;;46.75;38.25;;;;;;;;5033115;28;45592;-68
2021/12/20 03:51:34;;;;;;;;;44.00;37.25;;;;;;;;5032857;28;47366;-68
2021/12/20 03:53:59;;;;;;;;;45.25;38.50;;;;;;;;5033097;28;45382;-68
2021/12/20 03:56:25;;;;;;;;;41.50;36.00;;;;;;;;5033385;28;45333;-68
2021/12/20 03:58:50;;;;;;;;;39.00;34.00;;;;;;;;5034937;28;45333;-68
2021/12/20 04:01:16;;;;;;;;;38.00;33.25;;;;;;;;5033055;28;45941;-68
2021/12/20 04:03:41;;;;;;;;;38.25;33.25;;;;;;;;5030813;28;45339;-68
2021/12/20 04:06:09;;;;;;;;;37.75;31.00;;;;;;;;5031924;28;45518;-68
2021/12/20 04:08:34;;;;;;;;;45.00;34.50;;;;;;;;5033129;28;45560;-67
2021/12/20 04:10:59;;;;;;;;;43.75;36.25;;;;;;;;5034701;28;46131;-68
2021/12/20 04:13:25;;;;;;;;;44.25;34.50;;;;;;;;5032758;28;45424;-67
2021/12/20 04:15:50;;;;;;;;;42.50;32.75;;;;;;;;5033113;28;45430;-68
2021/12/20 04:18:16;;;;;;;;;37.75;33.75;;;;;;;;5032481;28;45454;-68
2021/12/20 04:20:41;;;;;;;;;35.75;30.75;;;;;;;;5032736;28;47037;-68
2021/12/20 04:23:06;;;;;;;;;34.00;30.25;;;;;;;;5034801;28;45463;-68
2021/12/20 04:25:31;;;;;;;;;40.25;32.75;;;;;;;;5032752;28;45534;-67
2021/12/20 04:27:56;;;;;;;;;42.25;34.00;;;;;;;;5032571;28;45397;-68
2021/12/20 04:30:22;;;;;;;;;31.25;28.25;;;;;;;;5033181;28;45724;-68
2021/12/20 04:32:47;;;;;;;;;39.25;32.50;;;;;;;;5032657;28;45460;-68
2021/12/20 04:35:14;;;;;;;;;34.75;30.25;;;;;;;;5033965;28;45287;-68
2021/12/20 04:37:43;;;;;;;;;37.25;29.00;;;;;;;;5032976;28;45639;-68
2021/12/20 04:40:14;;;;;;;;;46.25;38.00;;;;;;;;5032274;28;46456;-68
2021/12/20 04:42:39;;;;;;;;;38.25;32.75;;;;;;;;5030687;28;45503;-68
2021/12/20 04:45:04;;;;;;;;;38.75;34.75;;;;;;;;5031483;28;45535;-68
2021/12/20 04:47:30;;;;;;;;;27.75;25.00;;;;;;;;5032280;28;45592;-68
2021/12/20 04:49:55;;;;;;;;;37.75;32.25;;;;;;;;5034504;28;46328;-68
2021/12/20 04:52:20;;;;;;;;;31.75;27.75;;;;;;;;5032343;28;45681;-68
2021/12/20 04:54:46;;;;;;;;;36.25;27.25;;;;;;;;5032497;28;45483;-69
2021/12/20 04:57:11;;;;;;;;;32.00;27.25;;;;;;;;5032302;28;45534;-68
2021/12/20 04:59:36;;;;;;;;;27.25;24.50;;;;;;;;5032486;28;47114;-68
2021/12/20 05:02:02;;;;;;;;;35.75;26.75;;;;;;;;5034239;28;45412;-68
2021/12/20 05:04:27;;;;;;;;;39.00;30.00;;;;;;;;5032540;28;45273;-68
2021/12/20 05:06:52;;;;;;;;;27.25;27.25;;;;;;;;5032242;28;45452;-68
2021/12/20 05:09:18;;;;;;;;;34.50;27.75;;;;;;;;5031837;28;47005;-68
2021/12/20 05:11:50;;;;;;;;;28.25;26.25;;;;;;;;5032013;28;45404;-68
2021/12/20 05:14:15;;;;;;;;;32.00;28.75;;;;;;;;5032980;28;45400;-68
2021/12/20 05:16:40;;;;;;;;;27.75;22.75;;;;;;;;5034789;28;45519;-68
2021/12/20 05:19:05;;;;;;;;;34.25;26.50;;;;;;;;5035059;28;46179;-67
2021/12/20 05:21:31;;;;;;;;;26.00;22.25;;;;;;;;5034093;28;45384;-68
2021/12/20 05:23:56;;;;;;;;;28.00;20.75;;;;;;;;5033620;28;45444;-67
2021/12/20 05:26:21;;;;;;;;;29.00;25.75;;;;;;;;5035782;28;45278;-68
2021/12/20 05:28:46;;;;;;;;;35.75;27.50;;;;;;;;5036203;28;45528;-68
2021/12/20 05:31:12;;;;;;;;;26.25;23.50;;;;;;;;5034004;28;45395;-67
2021/12/20 05:33:37;;;;;;;;;37.50;29.75;;;;;;;;5034841;28;45512;-68
2021/12/20 05:36:02;;;;;;;;;31.50;28.75;;;;;;;;5035097;28;45297;-68
2021/12/20 05:38:27;;;;;;;;;33.00;28.25;;;;;;;;5016644;28;45974;-68
2021/12/20 05:40:53;;;;;;;;;34.00;28.50;;;;;;;;5036940;28;45319;-68
2021/12/20 05:43:18;;;;;;;;;34.75;31.00;;;;;;;;5034776;28;45373;-68
2021/12/20 05:45:43;;;;;;;;;28.75;25.75;;;;;;;;5034304;28;45462;-67
2021/12/20 05:48:08;;;;;;;;;36.50;28.25;;;;;;;;5034575;28;46984;-69
2021/12/20 05:50:34;;;;;;;;;39.50;32.25;;;;;;;;5034426;28;45892;-67
2021/12/20 05:52:59;;;;;;;;;35.00;32.00;;;;;;;;5036791;28;45417;-67
2021/12/20 05:55:24;;;;;;;;;35.75;28.25;;;;;;;;5033996;28;45488;-67
2021/12/20 05:57:49;;;;;;;;;37.75;30.50;;;;;;;;5034179;28;46390;-67
2021/12/20 06:00:18;;;;;;;;;31.50;26.25;;;;;;;;5032912;28;45397;-67
2021/12/20 06:02:44;;;;;;;;;34.00;26.00;;;;;;;;5032462;28;45448;-69
2021/12/20 06:05:10;;;;;;;;;31.00;27.25;;;;;;;;5034910;28;45446;-67
2021/12/20 06:07:38;;;;;;;;;35.00;32.25;;;;;;;;5033778;28;46931;-68
2021/12/20 06:10:04;;;;;;;;;30.00;28.50;;;;;;;;5033131;28;45388;-68
2021/12/20 06:12:29;;;;;;;;;36.75;31.00;;;;;;;;5033188;28;45456;-68
2021/12/20 06:14:55;;;;;;;;;43.00;33.25;;;;;;;;5015745;28;45706;-68
2021/12/20 06:17:20;;;;;;;;;36.75;27.75;;;;;;;;5034525;28;46524;-68
2021/12/20 06:19:45;;;;;;;;;34.50;30.75;;;;;;;;5035365;28;45501;-68
2021/12/20 06:22:10;;;;;;;;;29.75;27.50;;;;;;;;5015388;28;45237;-69
2021/12/20 06:24:36;;;;;;;;;37.75;33.00;;;;;;;;5033982;28;45449;-68
2021/12/20 06:27:02;;;;;;;;;30.50;25.25;;;;;;;;5032882;28;47136;-69
2021/12/20 06:29:27;;;;;;;;;32.75;29.75;;;;;;;;5032019;28;45466;-70
2021/12/20 06:31:52;;;;;;;;;43.00;36.25;;;;;;;;5035354;28;45651;-68
2021/12/20 06:34:18;;;;;;;;;33.75;28.25;;;;;;;;5033180;28;45539;-78
2021/12/20 06:36:43;;;;;;;;;33.50;31.50;;;;;;;;5032505;28;45359;-78
2021/12/20 06:39:08;;;;;;;;;38.25;29.00;;;;;;;;5033640;28;45293;-80
2021/12/20 06:41:33;;;;;;;;;35.75;32.50;;;;;;;;5033384;28;45516;-78
2021/12/20 06:44:01;;;;;;;;;33.75;26.25;;;;;;;;5035248;28;45267;-79
2021/12/20 06:46:27;;;;;;;;;28.75;26.00;;;;;;;;5034106;28;47002;-77
2021/12/20 06:48:52;;;;;;;;;40.75;28.25;;;;;;;;5032930;28;45242;-79
2021/12/20 06:51:17;;;;;;;;;34.25;29.25;;;;;;;;5034007;28;45386;-79
2021/12/20 06:53:43;;;;;;;;;31.00;25.50;;;;;;;;5033636;28;45316;-79
2021/12/20 06:56:08;;;;;;;;;36.25;31.00;;;;;;;;5017310;28;46943;-79
2021/12/20 06:58:33;;;;;;;;;26.25;22.75;;;;;;;;5033930;28;45526;-79
2021/12/20 07:00:59;;;;;;;;;31.75;29.50;;;;;;;;5033446;28;45612;-79
2021/12/20 07:03:25;;;;;;;;;36.25;33.50;;;;;;;;5033971;28;45455;-79
2021/12/20 07:05:51;;;;;;;;;31.00;27.75;;;;;;;;5034223;28;46201;-80
2021/12/20 07:08:16;;;;;;;;;30.25;27.00;;;;;;;;5034898;28;45285;-79
2021/12/20 07:10:41;;;;;;;;;28.00;21.00;;;;;;;;5033330;28;45332;-80
2021/12/20 07:13:07;;;;;;;;;23.00;22.00;;;;;;;;5032949;28;45499;-78
2021/12/20 07:15:32;;;;;;;;;23.00;21.00;;;;;;;;5016240;28;47887;-80
2021/12/20 07:17:58;;;;;;;;;21.75;17.75;;;;;;;;5031857;28;45361;-79
2021/12/20 07:20:23;;;;;;;;;32.75;26.50;;;;;;;;5037930;28;45436;-79
2021/12/20 07:22:48;;;;;;;;;21.75;16.00;;;;;;;;5033958;28;45314;-79
2021/12/20 07:25:14;;;;;;;;;27.75;21.25;;;;;;;;5033487;28;46104;-78
2021/12/20 07:27:39;;;;;;;;;24.25;21.75;;;;;;;;5032939;28;47433;-78
2021/12/20 07:30:05;;;;;;;;;23.00;19.00;;;;;;;;5034382;28;45543;-79
2021/12/20 07:32:30;;;;;;;;;20.25;18.75;;;;;;;;5033374;28;45516;-77
2021/12/20 07:34:57;;;;;;;;;18.50;16.75;;;;;;;;5034978;28;47250;-78
2021/12/20 07:37:25;;;;;;;;;15.75;15.00;;;;;;;;5031447;28;45550;-79
2021/12/20 07:39:50;;;;;;;;;24.25;20.50;;;;;;;;5031640;28;45633;-78
2021/12/20 07:42:15;;;;;;;;;19.00;16.75;;;;;;;;5033666;28;45374;-79
2021/12/20 07:44:41;;;;;;;;;25.00;17.50;;;;;;;;5032938;28;45330;-79
2021/12/20 07:47:06;;;;;;;;;21.75;16.50;;;;;;;;5034963;28;45376;-80
2021/12/20 07:49:33;;;;;;;;;23.50;23.50;;;;;;;;5031024;28;45571;-78
2021/12/20 07:51:59;;;;;;;;;25.25;22.75;;;;;;;;5032610;28;45466;-79
2021/12/20 07:54:24;;;;;;;;;24.00;21.75;;;;;;;;5032380;28;46257;-81
2021/12/20 07:56:49;;;;;;;;;20.25;17.75;;;;;;;;5014942;28;45810;-79
2021/12/20 07:59:14;;;;;;;;;24.00;19.75;;;;;;;;5034131;28;45452;-79
2021/12/20 08:01:40;;;;;;;;;24.50;24.25;;;;;;;;5032137;28;45215;-79
2021/12/20 08:04:07;;;;;;;;;25.50;22.75;;;;;;;;5031616;28;46121;-79
2021/12/20 08:06:32;;;;;;;;;26.75;25.25;;;;;;;;5033169;28;45419;-79
2021/12/20 08:08:57;;;;;;;;;23.25;19.50;;;;;;;;5030508;28;45512;-78
2021/12/20 08:11:23;;;;;;;;;26.75;24.00;;;;;;;;5032949;28;45364;-79
2021/12/20 08:13:48;;;;;;;;;33.50;23.00;;;;;;;;5034768;28;47209;-80
2021/12/20 08:16:14;;;;;;;;;27.75;25.00;;;;;;;;5030159;28;47361;-79
2021/12/20 08:18:43;;;;;;;;;23.50;22.50;;;;;;;;5032275;28;45478;-80
2021/12/20 08:21:09;;;;;;;;;29.50;25.25;;;;;;;;5031761;28;45554;-79
2021/12/20 08:23:34;;;;;;;;;30.25;27.25;;;;;;;;5032058;28;46896;-79
2021/12/20 08:26:00;;;;;;;;;25.50;23.25;;;;;;;;5034380;28;45450;-80
2021/12/20 08:28:25;;;;;;;;;25.50;23.75;;;;;;;;5032263;28;45373;-78
2021/12/20 08:30:50;;;;;;;;;31.50;28.75;;;;;;;;5033514;28;45376;-79
2021/12/20 08:33:15;;;;;;;;;33.50;28.25;;;;;;;;5031590;28;46169;-79
2021/12/20 08:35:42;;;;;;;;;31.75;25.25;;;;;;;;5030203;28;45520;-77
2021/12/20 08:38:07;;;;;;;;;24.75;21.75;;;;;;;;5033400;28;45906;-79
2021/12/20 08:40:32;;;;;;;;;35.75;33.25;;;;;;;;5029889;28;45332;-78
2021/12/20 08:42:57;;;;;;;;;32.75;26.00;;;;;;;;5031736;28;45484;-79
2021/12/20 08:45:23;;;;;;;;;40.00;31.50;;;;;;;;5031747;28;45513;-79
2021/12/20 08:47:48;;;;;;;;;30.00;24.25;;;;;;;;5030960;28;45545;-79
2021/12/20 08:50:14;;;;;;;;;30.25;24.50;;;;;;;;5017614;28;45300;-79
2021/12/20 08:52:39;;;;;;;;;29.75;25.25;;;;;;;;5035863;28;46396;-78
2021/12/20 08:55:05;;;;;;;;;29.75;26.50;;;;;;;;5035671;28;45455;-79
2021/12/20 08:57:30;;;;;;;;;31.75;27.00;;;;;;;;5036658;28;45804;-79
2021/12/20 08:59:56;;;;;;;;;27.00;22.25;;;;;;;;5035737;28;45518;-78
2021/12/20 09:02:21;;;;;;;;;30.25;27.50;;;;;;;;5035992;28;46358;-78
2021/12/20 09:04:46;;;;;;;;;23.75;22.00;;;;;;;;5037436;28;45298;-80
2021/12/20 09:07:15;;;;;;;;;25.75;21.75;;;;;;;;5036026;28;45468;-78
2021/12/20 09:09:44;;;;;;;;;23.75;19.50;;;;;;;;5034164;28;45263;-79
2021/12/20 09:12:09;;;;;;;;;19.75;19.00;;;;;;;;5034102;28;46198;-79
2021/12/20 09:14:34;;;;;;;;;27.50;22.25;;;;;;;;5034604;28;45361;-77
2021/12/20 09:17:01;;;;;;;;;28.00;20.25;;;;;;;;5036913;28;45756;-79
2021/12/20 09:19:26;;;;;;;;;38.00;29.50;;;;;;;;5033394;28;45386;-78
2021/12/20 09:21:52;;;;;;;;;30.00;27.50;;;;;;;;5034499;28;47181;-79
2021/12/20 09:24:17;;;;;;;;;25.25;22.00;;;;;;;;5035696;28;45600;-79
2021/12/20 09:26:42;;;;;;;;;30.75;26.25;;;;;;;;5035868;28;45470;-79
2021/12/20 09:29:07;;;;;;;;;29.75;24.00;;;;;;;;5037623;28;45436;-78
2021/12/20 09:31:32;;;;;;;;;26.50;23.50;;;;;;;;5035004;28;45439;-80
2021/12/20 09:33:58;;;;;;;;;39.75;32.75;;;;;;;;5035641;28;45463;-79
2021/12/20 09:36:29;;;;;;;;;25.75;23.25;;;;;;;;5029495;28;45344;-78
2021/12/20 09:38:54;;;;;;;;;35.75;29.00;;;;;;;;5033437;28;45371;-80
2021/12/20 09:41:59;;;;;;;;;28.00;22.50;;;;;;;;5036095;28;45557;-78
2021/12/20 09:44:06;;;;;;;;;24.00;19.25;;;;;;;;5036944;28;45286;-77
2021/12/20 09:46:32;;;;;;;;;27.00;25.50;;;;;;;;5034519;28;45397;-79
2021/12/20 09:49:00;;;;;;;;;25.00;23.25;;;;;;;;5034402;28;45554;-79
2021/12/20 09:51:26;;;;;;;;;25.00;19.75;;;;;;;;5034306;28;46335;-79
2021/12/20 09:53:51;;;;;;;;;27.50;24.25;;;;;;;;5035663;28;45277;-79
2021/12/20 09:56:17;;;;;;;;;24.50;22.00;;;;;;;;5036343;28;45270;-77
2021/12/20 09:58:43;;;;;;;;;25.25;25.25;;;;;;;;5037725;28;45557;-79
2021/12/20 10:01:09;;;;;;;;;29.25;24.25;;;;;;;;5033927;28;46127;-79
2021/12/20 10:03:35;;;;;;;;;30.50;22.00;;;;;;;;5035900;28;45433;-78
2021/12/20 10:06:00;;;;;;;;;21.00;16.25;;;;;;;;5035244;28;45649;-78
2021/12/20 10:08:37;;;;;;;;;23.50;17.50;;;;;;;;5035838;28;45330;-79
2021/12/20 10:11:29;;;;;;;;;23.75;21.75;;;;;;;;5036239;28;46942;-78
2021/12/20 10:14:02;;;;;;;;;26.50;25.50;;;;;;;;5013800;28;45560;-79
2021/12/20 10:16:28;;;;;;;;;28.25;24.75;;;;;;;;5034592;28;45387;-79
2021/12/20 10:18:53;;;;;;;;;28.75;25.50;;;;;;;;5034397;28;45475;-78
2021/12/20 10:21:19;;;;;;;;;24.25;20.50;;;;;;;;5033465;28;47359;-79
2021/12/20 10:23:46;;;;;;;;;25.00;22.25;;;;;;;;5035189;28;45325;-79
2021/12/20 10:26:13;;;;;;;;;25.75;23.25;;;;;;;;5036518;28;45469;-78
2021/12/20 10:28:39;;;;;;;;;27.50;26.75;;;;;;;;5033299;28;45622;-79
2021/12/20 10:31:06;;;;;;;;;17.00;15.00;;;;;;;;5033997;28;46205;-79
2021/12/20 10:33:32;;;;;;;;;23.25;23.00;;;;;;;;5029028;28;45305;-79
2021/12/20 10:36:00;;;;;;;;;21.00;20.25;;;;;;;;5033267;28;45403;-79
2021/12/20 10:38:37;;;;;;;;;27.00;22.25;;;;;;;;5033714;28;45329;-79
2021/12/20 10:41:05;;;;;;;;;15.75;12.75;;;;;;;;5039568;28;47082;-78
2021/12/20 10:43:35;;;;;;;;;21.75;17.75;;;;;;;;5033727;28;45281;-79
2021/12/20 10:46:07;;;;;;;;;12.50;11.00;;;;;;;;5034188;28;45301;-78
2021/12/20 10:48:33;;;;;;;;;16.50;15.25;;;;;;;;5012871;28;45429;-79
2021/12/20 10:50:58;;;;;;;;;16.50;13.25;;;;;;;;5017581;28;45987;-79
2021/12/20 10:53:25;;;;;;;;;12.75;12.50;;;;;;;;5038656;28;45401;-79
2021/12/20 10:55:55;;;;;;;;;34.00;31.75;;;;;;;;5035457;28;45234;-80
2021/12/20 10:58:28;;;;;;;;;17.25;15.25;;;;;;;;5024976;28;45361;-78
2021/12/20 11:01:15;;;;;;;;;11.50;10.00;;;;;;;;5049258;28;46485;-78
2021/12/20 11:03:41;;;;;;;;;18.50;13.50;;;;;;;;5052046;28;45446;-78
2021/12/20 11:06:24;;;;;;;;;12.50;10.50;;;;;;;;5047885;28;45612;-80
2021/12/20 11:09:05;;;;;;;;;22.50;18.75;;;;;;;;5020577;28;45285;-79
2021/12/20 11:11:31;;;;;;;;;19.50;18.25;;;;;;;;5034155;28;46344;-79
2021/12/20 11:14:00;;;;;;;;;14.00;13.00;;;;;;;;5035875;28;45424;-80
2021/12/20 11:16:45;;;;;;;;;34.50;30.75;;;;;;;;5036542;28;45270;-78
2021/12/20 11:19:15;;;;;;;;;18.00;17.25;;;;;;;;5034250;28;45307;-77
2021/12/20 11:21:49;;;;;;;;;32.75;30.25;;;;;;;;5027921;28;47158;-78
2021/12/20 11:24:16;;;;;;;;;39.25;35.00;;;;;;;;5014497;28;46772;-78
2021/12/20 11:26:41;;;;;;;;;20.50;19.25;;;;;;;;5032980;28;45476;-79
2021/12/20 11:29:07;;;;;;;;;32.50;31.00;;;;;;;;5034576;28;45302;-80
2021/12/20 11:31:32;;;;;;;;;29.00;24.25;;;;;;;;5032655;28;45972;-78
2021/12/20 11:33:59;;;;;;;;;23.00;19.25;;;;;;;;5032450;28;45535;-78
2021/12/20 11:36:24;;;;;;;;;17.00;16.75;;;;;;;;5033047;28;45487;-78
2021/12/20 11:38:49;;;;;;;;;23.75;21.75;;;;;;;;5032771;28;49449;-78
2021/12/20 11:41:15;;;;;;;;;19.75;19.75;;;;;;;;5034152;28;46226;-79
2021/12/20 11:43:40;;;;;;;;;23.25;23.25;;;;;;;;5033546;28;45349;-79
2021/12/20 11:46:06;;;;;;;;;22.75;18.25;;;;;;;;5031408;28;45326;-79
2021/12/20 11:48:32;;;;;;;;;13.50;13.00;;;;;;;;5037088;28;45328;-79
2021/12/20 11:50:58;;;;;;;;;19.25;14.75;;;;;;;;5032926;28;45597;-79
2021/12/20 11:53:23;;;;;;;;;21.75;19.00;;;;;;;;5033500;28;45250;-79
2021/12/20 11:55:51;;;;;;;;;31.75;28.25;;;;;;;;5031742;28;45426;-79
2021/12/20 11:58:18;;;;;;;;;30.50;20.00;;;;;;;;5032246;28;45522;-79
2021/12/20 12:00:50;;;;;;;;;26.50;25.75;;;;;;;;5032462;28;46396;-79
2021/12/20 12:03:15;;;;;;;;;20.00;19.50;;;;;;;;5032648;28;45477;-79
2021/12/20 12:05:54;;;;;;;;;15.50;14.50;;;;;;;;5034261;28;45506;-78
2021/12/20 12:08:30;;;;;;;;;25.00;20.75;;;;;;;;5036397;28;45380;-80
2021/12/20 12:11:15;;;;;;;;;21.25;20.25;;;;;;;;5036127;28;47364;-80
2021/12/20 12:13:45;;;;;;;;;25.00;22.50;;;;;;;;5019361;28;45459;-79
2021/12/20 12:18:52;;;;;;;;;22.75;22.00;;;;;;;;5034908;28;45385;-78
2021/12/20 12:21:33;;;;;;;;;25.75;22.00;;;;;;;;5033253;28;45393;-79
2021/12/20 12:24:03;;;;;;;;;22.00;20.25;;;;;;;;5033267;28;45409;-79
2021/12/20 12:26:30;;;;;;;;;28.75;22.50;;;;;;;;5034156;28;45514;-79
2021/12/20 12:28:56;;;;;;;;;17.50;17.25;;;;;;;;5016778;28;45358;-79
2021/12/20 12:31:23;;;;;;;;;20.25;16.75;;;;;;;;5014711;28;46931;-79
2021/12/20 12:34:04;;;;;;;;;23.00;21.50;;;;;;;;5033178;28;45466;-79
2021/12/20 12:36:31;;;;;;;;;21.25;18.50;;;;;;;;5032958;28;45423;-80
2021/12/20 12:38:58;;;;;;;;;16.25;15.00;;;;;;;;5034913;28;45350;-80
2021/12/20 12:41:26;;;;;;;;;21.00;17.50;;;;;;;;5035395;28;45536;-78
2021/12/20 12:43:56;;;;;;;;;24.25;22.75;;;;;;;;5034416;28;45632;-80
2021/12/20 12:46:36;;;;;;;;;20.50;17.25;;;;;;;;5032384;28;45340;-80
2021/12/20 12:49:20;;;;;;;;;17.50;17.50;;;;;;;;5033071;28;45276;-79
2021/12/20 12:51:46;;;;;;;;;16.25;15.75;;;;;;;;5035570;28;46732;-79
2021/12/20 12:54:33;;;;;;;;;14.25;13.50;;;;;;;;5049456;28;45369;-78
2021/12/20 12:57:11;;;;;;;;;23.50;19.00;;;;;;;;5017145;28;45362;-80
2021/12/20 12:59:38;;;;;;;;;24.00;23.00;;;;;;;;5043289;28;45262;-79
2021/12/20 13:02:27;;;;;;;;;30.75;23.75;;;;;;;;5038563;28;45412;-79
2021/12/20 13:04:56;;;;;;;;;17.00;14.75;;;;;;;;5019804;28;45537;-78
2021/12/20 13:07:23;;;;;;;;;21.50;16.75;;;;;;;;5033943;28;45458;-79
2021/12/20 13:09:50;;;;;;;;;20.50;16.00;;;;;;;;5033533;28;45304;-78
2021/12/20 13:12:27;;;;;;;;;19.50;19.50;;;;;;;;5032227;28;48794;-80
2021/12/20 13:15:04;;;;;;;;;32.00;29.50;;;;;;;;5033348;28;45457;-79
2021/12/20 13:17:31;;;;;;;;;20.25;17.75;;;;;;;;5033673;28;45345;-80
2021/12/20 13:22:58;;;;;;;;;23.75;18.25;;;;;;;;5013992;28;45513;-79
2021/12/20 13:25:41;;;;;;;;;17.75;17.75;;;;;;;;5033371;28;45554;-79
2021/12/20 13:28:21;;;;;;;;;15.75;15.50;;;;;;;;5032086;28;45546;-79
2021/12/20 13:31:05;;;;;;;;;16.00;14.75;;;;;;;;5036471;28;45266;-78
2021/12/20 13:33:32;;;;;;;;;15.25;13.50;;;;;;;;5032632;28;46202;-79
2021/12/20 13:36:00;;;;;;;;;17.25;15.75;;;;;;;;5032031;28;45464;-78
2021/12/20 13:38:28;;;;;;;;;13.75;12.75;;;;;;;;5036209;28;45336;-79
2021/12/20 13:40:53;;;;;;;;;10.50;10.50;;;;;;;;5038667;28;45380;-78
2021/12/20 13:43:24;;;;;;;;;14.75;11.50;;;;;;;;5035236;28;47060;-79
2021/12/20 13:46:10;;;;;;;;;16.25;13.50;;;;;;;;5037229;28;45317;-69
2021/12/20 13:48:36;;;;;;;;;24.25;21.75;;;;;;;;5032108;28;45471;-68
2021/12/20 13:51:01;;;;;;;;;19.25;18.00;;;;;;;;5032185;28;45459;-68
2021/12/20 13:53:27;;;;;;;;;18.00;16.75;;;;;;;;5033568;28;47448;-69
2021/12/20 13:56:00;;;;;;;;;20.75;15.25;;;;;;;;5035793;28;45523;-69
2021/12/20 13:58:28;;;;;;;;;22.50;20.00;;;;;;;;5033527;28;45321;-69
2021/12/20 14:00:55;;;;;;;;;14.00;14.00;;;;;;;;5033927;28;45435;-68
2021/12/20 14:03:20;;;;;;;;;21.50;17.00;;;;;;;;5033699;28;45642;-69
2021/12/20 14:05:47;;;;;;;;;17.25;15.75;;;;;;;;5015533;28;45313;-68
2021/12/20 14:08:16;;;;;;;;;10.75;10.25;;;;;;;;5035151;28;45462;-68
2021/12/20 14:10:42;;;;;;;;;26.75;23.75;;;;;;;;5032242;28;45246;-69
2021/12/20 14:13:08;;;;;;;;;8.50;8.00;;;;;;;;5033053;28;46261;-68
2021/12/20 14:15:35;;;;;;;;;18.50;18.50;;;;;;;;5033171;28;45536;-69
2021/12/20 14:18:03;;;;;;;;;22.50;19.25;;;;;;;;5032673;28;45584;-68
2021/12/20 14:20:47;;;;;;;;;17.75;17.25;;;;;;;;5033159;28;45331;-68
2021/12/20 14:23:22;;;;;;;;;17.75;15.75;;;;;;;;5012365;28;46215;-68
2021/12/20 14:25:50;;;;;;;;;15.75;15.00;;;;;;;;5034244;28;45330;-69
2021/12/20 14:28:16;;;;;;;;;12.00;11.75;;;;;;;;5030996;28;45476;-68
2021/12/20 14:30:48;;;;;;;;;18.75;18.00;;;;;;;;5031193;28;45467;-70
2021/12/20 14:33:39;;;;;;;;;13.25;10.50;;;;;;;;5032595;28;46485;-69
2021/12/20 14:36:04;;;;;;;;;9.50;8.50;;;;;;;;5016047;28;45425;-69